Strona główna
METAR-TAF:

METAR-TAF

Lotnisko :

Port lotniczy Marka

Amman, Jordania

Szerokość geograficzna: 31-59N, Długość geograficzna: 035-59E, wysokość: 767 m

Aktualna obserwacja pogody

Raport powstał 1 godzina i 9 minut temu, godzina 11:00 UTC
Wiatr 7 kt od północno-północny zachód
Temperatura 32°C
Wilgotność 21%
Ciśnienie 1012 hPa
Widzialność: 5000 m
zmętnienie

METAR: OJAM 161100Z 33007KT 5000 HZ NSC 32/07 Q1012 NOSIG

czas: 15:09 (12:09 UTC)

Prognoza

Raport powstał 2 godziny i 26 minut temu, godzina 09:43 UTC
Prognoza ważna od 16 godzina 12 UTC do 17 godzina 18 UTC
Wiatr 10 kt od zachodnio-północny zachód
Widzialność: 5000 m
zmętnienie
Stopniowe zmiany
od 16 godzina 17 UTC do 16 godzina 19 UTC
Wiatr 2 kt z kierunków zmiennych

TAF: OJAM 160943Z 1612/1718 30010KT 5000 HZ NSC BECMG 1617/1619 VRB02KT

Obserwacja i prognoza pogody dla ponad 4000 lotnisk (raport METAR i TAF).

Dostępne stacje oznaczono żółtymi i czerwonymi punktami na mapie.

Najedź kursorem aby zobaczyć nazwę stacji.

Kliknij aby zobaczyć obserwacje i prognozy pogody.

Aby zmienić mapę: kliknij na zielony przycisk z czarnym krzyżykiem, aby powiększyć; na zielony przycisk z myślnikiem, aby pomniejszyć; na zielone strzałki, aby przejść do map sąsiednich.


METAR-TAF: